Terminal Aerodrome Forecast
Issued by NWS Buffalo, NY

Home | Current Version | Previous Version | Text Only | Print | Product List | Glossary On
Versions: 1 2 3 4 5 6 7 8 9 10 11 12 13 14 15 16 17 18 19 20 21 22 23 24 25 26 27 28 29 30
016
FTUS41 KBUF 281120
TAFART
TAF
KART 281120Z 2812/2912 07006KT P6SM BKN250
     FM281800 01009KT P6SM SCT250
     FM290000 03005KT P6SM FEW250
     FM290200 07004KT P6SM FEW250=

USA.gov is the U.S. government's official web portal to all federal, state and local government web resources and services.